createdAt,value
2019-05-29T00:00:10.064Z,10.99
2019-05-29T00:02:38.759Z,11.03
2019-05-29T00:05:08.390Z,11.04
2019-05-29T00:07:36.812Z,10.96
2019-05-29T00:10:08.773Z,10.81
2019-05-29T00:12:37.486Z,10.87
2019-05-29T00:15:06.295Z,10.86
2019-05-29T00:17:34.886Z,10.85
2019-05-29T00:20:03.361Z,10.84
2019-05-29T00:22:31.808Z,10.83
2019-05-29T00:25:00.244Z,10.71
2019-05-29T00:27:28.657Z,10.73
2019-05-29T00:29:57.100Z,10.77
2019-05-29T00:32:25.524Z,10.64
2019-05-29T00:34:53.962Z,10.63
2019-05-29T00:37:22.480Z,10.64
2019-05-29T00:39:50.852Z,10.60
2019-05-29T00:42:19.271Z,10.67
2019-05-29T00:44:47.702Z,10.59
2019-05-29T00:47:16.116Z,10.49
2019-05-29T00:49:44.538Z,10.58
2019-05-29T00:52:14.198Z,10.47
2019-05-29T00:54:43.228Z,10.50
2019-05-29T00:57:12.866Z,10.48
2019-05-29T00:59:41.629Z,10.53
2019-05-29T01:02:11.783Z,10.44
2019-05-29T01:04:40.315Z,10.42
2019-05-29T01:07:10.090Z,10.37
2019-05-29T01:09:38.899Z,10.33
2019-05-29T01:12:07.993Z,10.31
2019-05-29T01:14:49.169Z,10.32
2019-05-29T01:17:06.565Z,10.23
2019-05-29T01:19:34.969Z,10.11
2019-05-29T01:22:03.447Z,10.12
2019-05-29T01:24:31.969Z,10.14
2019-05-29T01:27:00.370Z,10.19
2019-05-29T01:29:28.799Z,10.20
2019-05-29T01:31:57.237Z,10.18
2019-05-29T01:34:25.645Z,10.22
2019-05-29T01:36:54.089Z,10.17
2019-05-29T01:39:23.529Z,10.14
2019-05-29T01:41:51.995Z,10.17
2019-05-29T01:44:21.456Z,10.20
2019-05-29T01:46:50.015Z,10.18
2019-05-29T01:49:19.522Z,10.10
2019-05-29T01:51:48.343Z,10.09
2019-05-29T01:54:17.546Z,10.06
2019-05-29T01:56:46.085Z,9.97
2019-05-29T01:59:15.635Z,10.04
2019-05-29T02:01:44.303Z,10.06
2019-05-29T02:04:12.717Z,9.99
2019-05-29T02:06:41.148Z,10.02
2019-05-29T02:09:09.562Z,10.01
2019-05-29T02:11:38.006Z,9.93
2019-05-29T02:14:06.404Z,9.86
2019-05-29T02:16:34.820Z,9.85
2019-05-29T02:19:03.255Z,9.80
2019-05-29T02:21:31.647Z,9.83
2019-05-29T02:24:00.072Z,9.81
2019-05-29T02:26:28.486Z,9.78
2019-05-29T02:28:56.915Z,9.69
2019-05-29T02:31:27.118Z,9.61
2019-05-29T02:33:55.474Z,9.64
2019-05-29T02:36:24.574Z,9.66
2019-05-29T02:38:53.668Z,9.64
2019-05-29T02:41:24.138Z,9.60
2019-05-29T02:43:52.374Z,9.56
2019-05-29T02:46:21.776Z,9.51
2019-05-29T02:48:50.881Z,9.49
2019-05-29T02:51:19.726Z,9.40
2019-05-29T02:53:48.290Z,9.42
2019-05-29T02:56:16.706Z,9.31
2019-05-29T02:58:45.667Z,9.33
2019-05-29T03:01:14.588Z,9.34
2019-05-29T03:03:42.961Z,9.21
2019-05-29T03:06:12.830Z,9.21
2019-05-29T03:08:41.360Z,9.32
2019-05-29T03:11:09.934Z,9.29
2019-05-29T03:13:38.533Z,9.21
2019-05-29T03:16:11.443Z,9.23
2019-05-29T03:18:37.127Z,9.23
2019-05-29T03:21:05.637Z,9.23
2019-05-29T03:23:36.283Z,9.15
2019-05-29T03:26:04.449Z,9.08
2019-05-29T03:28:35.128Z,9.13
2019-05-29T03:31:03.424Z,9.08
2019-05-29T03:33:39.329Z,9.05
2019-05-29T03:36:02.009Z,9.04
2019-05-29T03:38:32.463Z,9.05
2019-05-29T03:41:00.632Z,9.09
2019-05-29T03:43:30.892Z,9.09
2019-05-29T03:45:59.343Z,9.09
2019-05-29T03:48:27.900Z,9.09
2019-05-29T03:50:56.361Z,9.08
2019-05-29T03:53:24.813Z,9.07
2019-05-29T03:55:53.253Z,9.08
2019-05-29T03:58:21.757Z,9.06
2019-05-29T04:00:50.218Z,9.05
2019-05-29T04:03:18.663Z,8.86
2019-05-29T04:05:47.224Z,8.83
2019-05-29T04:08:15.636Z,8.86
2019-05-29T04:10:44.098Z,8.88
2019-05-29T04:13:13.181Z,8.89
2019-05-29T04:15:42.840Z,8.74
2019-05-29T04:18:11.327Z,8.79
2019-05-29T04:20:39.830Z,8.65
2019-05-29T04:23:08.783Z,8.59
2019-05-29T04:25:41.887Z,8.62
2019-05-29T04:28:08.873Z,8.68
2019-05-29T04:30:39.191Z,8.69
2019-05-29T04:33:07.518Z,8.71
2019-05-29T04:35:36.810Z,8.82
2019-05-29T04:38:05.788Z,8.77
2019-05-29T04:40:34.963Z,8.72
2019-05-29T04:43:04.366Z,8.83
2019-05-29T04:45:33.451Z,8.78
2019-05-29T04:48:02.902Z,8.79
2019-05-29T04:50:32.957Z,8.84
2019-05-29T04:53:01.459Z,8.94
2019-05-29T04:55:30.720Z,8.95
2019-05-29T04:57:59.180Z,9.08
2019-05-29T05:00:28.920Z,9.15
2019-05-29T05:02:57.628Z,9.19
2019-05-29T05:05:26.126Z,9.30
2019-05-29T05:07:54.558Z,9.39
2019-05-29T05:10:38.033Z,9.48
2019-05-29T05:13:07.240Z,9.65
2019-05-29T05:15:36.390Z,9.72
2019-05-29T05:18:06.706Z,9.70
2019-05-29T05:20:36.224Z,9.79
2019-05-29T05:23:05.712Z,9.76
2019-05-29T05:25:34.389Z,9.72
2019-05-29T05:28:04.234Z,9.89
2019-05-29T05:30:36.456Z,9.93
2019-05-29T05:33:05.276Z,9.94
2019-05-29T05:35:34.663Z,9.95
2019-05-29T05:38:03.491Z,10.04
2019-05-29T05:40:33.017Z,10.20
2019-05-29T05:43:02.083Z,10.52
2019-05-29T05:45:30.904Z,11.07
2019-05-29T05:47:59.415Z,11.44
2019-05-29T05:50:27.819Z,11.81
2019-05-29T05:52:56.313Z,12.12
2019-05-29T05:55:24.731Z,12.62
2019-05-29T05:57:53.157Z,12.97
2019-05-29T06:00:34.143Z,12.99
2019-05-29T06:03:02.555Z,14.27
2019-05-29T06:05:32.115Z,14.41
2019-05-29T06:08:00.899Z,15.20
2019-05-29T06:10:29.442Z,15.29
2019-05-29T06:12:57.887Z,15.43
2019-05-29T06:15:26.390Z,15.41
2019-05-29T06:18:17.013Z,15.51
2019-05-29T06:20:24.963Z,14.95
2019-05-29T06:22:53.371Z,14.77
2019-05-29T06:25:22.178Z,14.49
2019-05-29T06:27:50.584Z,14.27
2019-05-29T06:30:19.230Z,14.51
2019-05-29T06:32:47.672Z,14.93
2019-05-29T06:35:16.152Z,14.76
2019-05-29T06:37:44.649Z,14.76
2019-05-29T06:40:14.669Z,14.30
2019-05-29T06:42:43.958Z,14.48
2019-05-29T06:45:13.535Z,14.26
2019-05-29T06:47:42.763Z,14.46
2019-05-29T06:50:11.294Z,14.37
2019-05-29T06:52:39.745Z,14.15
2019-05-29T06:55:08.625Z,13.63
2019-05-29T06:57:38.136Z,13.73
2019-05-29T07:00:08.128Z,13.72
2019-05-29T07:02:36.524Z,13.83
2019-05-29T07:05:06.598Z,14.36
2019-05-29T07:07:36.016Z,14.52
2019-05-29T07:10:06.773Z,13.90
2019-05-29T07:12:36.282Z,13.64
2019-05-29T07:15:09.606Z,14.06
2019-05-29T07:17:38.570Z,13.41
2019-05-29T07:20:07.668Z,14.11
2019-05-29T07:22:36.972Z,14.88
2019-05-29T07:25:07.132Z,15.22
2019-05-29T07:27:36.725Z,15.80
2019-05-29T07:30:07.383Z,16.93
2019-05-29T07:32:38.179Z,17.41
2019-05-29T07:35:06.847Z,17.08
2019-05-29T07:37:35.290Z,16.67
2019-05-29T07:40:07.608Z,16.90
2019-05-29T07:42:36.032Z,15.43
2019-05-29T07:45:06.005Z,15.23
2019-05-29T07:47:34.419Z,15.60
2019-05-29T07:50:03.297Z,15.44
2019-05-29T07:52:31.753Z,15.41
2019-05-29T07:55:00.261Z,15.85
2019-05-29T07:57:28.687Z,16.01
2019-05-29T07:59:57.129Z,15.97
2019-05-29T08:02:25.614Z,16.79
2019-05-29T08:04:54.032Z,16.84
2019-05-29T08:07:22.458Z,16.83
2019-05-29T08:09:50.865Z,16.60
2019-05-29T08:12:19.335Z,15.80
2019-05-29T08:14:47.959Z,15.75
2019-05-29T08:17:16.375Z,15.76
2019-05-29T08:19:59.297Z,15.96
2019-05-29T08:22:15.014Z,16.02
2019-05-29T08:24:45.854Z,15.88
2019-05-29T08:27:13.649Z,15.39
2019-05-29T08:29:42.588Z,14.84
2019-05-29T08:32:11.119Z,15.01
2019-05-29T08:34:40.827Z,14.80
2019-05-29T08:37:10.957Z,14.66
2019-05-29T08:39:39.356Z,14.82
2019-05-29T08:42:22.706Z,15.04
2019-05-29T08:44:38.108Z,14.71
2019-05-29T08:47:10.695Z,15.15
2019-05-29T08:49:36.846Z,14.92
2019-05-29T08:52:11.853Z,15.19
2019-05-29T08:54:37.728Z,15.44
2019-05-29T08:57:06.186Z,15.48
2019-05-29T08:59:34.719Z,15.24
2019-05-29T09:02:03.081Z,15.07
2019-05-29T09:04:31.523Z,15.37
2019-05-29T09:07:00.027Z,15.15
2019-05-29T09:09:28.431Z,15.31
2019-05-29T09:11:56.868Z,15.04
2019-05-29T09:14:25.286Z,15.29
2019-05-29T09:16:53.750Z,15.52
2019-05-29T09:19:22.853Z,15.17
2019-05-29T09:21:51.682Z,14.96
2019-05-29T09:24:20.939Z,14.91
2019-05-29T09:26:49.674Z,15.17
2019-05-29T09:29:20.597Z,15.20
2019-05-29T09:31:48.328Z,15.26
2019-05-29T09:34:18.630Z,15.22
2019-05-29T09:36:47.097Z,14.94
2019-05-29T09:39:16.677Z,15.04
2019-05-29T09:41:45.813Z,15.04
2019-05-29T09:44:28.167Z,15.05
2019-05-29T09:46:44.542Z,15.37
2019-05-29T09:49:13.001Z,15.25
2019-05-29T09:51:41.436Z,15.66
2019-05-29T09:54:09.983Z,15.77
2019-05-29T09:56:38.472Z,15.63
2019-05-29T09:59:06.895Z,15.68
2019-05-29T10:01:35.349Z,15.66
2019-05-29T10:04:06.051Z,15.61
2019-05-29T10:06:33.934Z,15.72
2019-05-29T10:09:03.648Z,15.37
2019-05-29T10:11:32.360Z,15.69
2019-05-29T10:14:02.626Z,15.30
2019-05-29T10:16:30.956Z,15.32
2019-05-29T10:19:00.360Z,15.33
2019-05-29T10:21:39.885Z,15.59
2019-05-29T10:24:01.241Z,15.74
2019-05-29T10:26:30.090Z,15.68
2019-05-29T10:29:07.590Z,15.78
2019-05-29T10:31:28.907Z,15.75
2019-05-29T10:33:57.336Z,15.77
2019-05-29T10:36:25.816Z,15.65
2019-05-29T10:38:55.900Z,15.69
2019-05-29T10:41:24.395Z,15.44
2019-05-29T10:43:53.363Z,15.59
2019-05-29T10:46:22.105Z,15.81
2019-05-29T10:48:53.348Z,15.48
2019-05-29T10:51:20.805Z,15.49
2019-05-29T10:53:50.340Z,15.63
2019-05-29T10:56:21.320Z,15.70
2019-05-29T10:58:56.462Z,15.76
2019-05-29T11:01:20.044Z,16.08
2019-05-29T11:03:49.357Z,16.29
2019-05-29T11:06:18.012Z,16.05
2019-05-29T11:08:48.061Z,15.80
2019-05-29T11:11:16.617Z,16.00
2019-05-29T11:13:46.593Z,16.05
2019-05-29T11:16:15.126Z,16.33
2019-05-29T11:18:43.700Z,16.69
2019-05-29T11:21:12.145Z,16.34
2019-05-29T11:23:40.580Z,16.49
2019-05-29T11:26:09.066Z,16.81
2019-05-29T11:28:37.489Z,16.91
2019-05-29T11:31:06.548Z,16.98
2019-05-29T11:33:34.999Z,17.00
2019-05-29T11:36:10.748Z,16.98
2019-05-29T11:38:33.738Z,16.84
2019-05-29T11:41:24.506Z,16.71
2019-05-29T11:43:32.504Z,16.75
2019-05-29T11:46:01.950Z,16.72
2019-05-29T11:48:30.485Z,16.30
2019-05-29T11:50:58.951Z,16.01
2019-05-29T11:53:27.403Z,16.31
2019-05-29T11:55:56.022Z,16.44
2019-05-29T11:58:30.904Z,16.21
2019-05-29T12:00:55.146Z,16.47
2019-05-29T12:03:23.867Z,16.33
2019-05-29T12:05:53.484Z,16.71
2019-05-29T12:08:22.202Z,16.60
2019-05-29T12:10:51.295Z,17.02
2019-05-29T12:13:19.828Z,16.75
2019-05-29T12:15:48.341Z,16.87
2019-05-29T12:18:23.390Z,16.70
2019-05-29T12:20:47.053Z,16.69
2019-05-29T12:23:25.966Z,16.42
2019-05-29T12:25:45.757Z,16.43
2019-05-29T12:28:14.219Z,16.49
2019-05-29T12:30:42.702Z,16.66
2019-05-29T12:33:11.142Z,16.68
2019-05-29T12:35:39.646Z,17.00
2019-05-29T12:38:08.127Z,16.98
2019-05-29T12:40:36.553Z,16.75
2019-05-29T12:43:05.726Z,16.80
2019-05-29T12:45:34.251Z,16.96
2019-05-29T12:48:06.655Z,16.69
2019-05-29T12:50:34.474Z,16.91
2019-05-29T12:53:03.959Z,17.11
2019-05-29T12:55:32.509Z,17.10
2019-05-29T12:58:02.190Z,16.83
2019-05-29T13:00:31.087Z,16.94
2019-05-29T13:03:00.741Z,17.02
2019-05-29T13:05:29.358Z,17.35
2019-05-29T13:07:58.876Z,17.41
2019-05-29T13:10:30.999Z,17.30
2019-05-29T13:13:04.814Z,17.48
2019-05-29T13:15:29.322Z,17.37
2019-05-29T13:18:02.449Z,17.25
2019-05-29T13:20:28.039Z,17.27
2019-05-29T13:22:57.693Z,16.92
2019-05-29T13:25:26.206Z,16.76
2019-05-29T13:27:57.369Z,16.93
2019-05-29T13:30:24.941Z,16.84
2019-05-29T13:32:53.411Z,16.63
2019-05-29T13:35:22.643Z,16.72
2019-05-29T13:37:51.147Z,16.80
2019-05-29T13:40:20.121Z,16.77
2019-05-29T13:42:48.545Z,16.44
2019-05-29T13:45:19.957Z,16.22
2019-05-29T13:47:48.376Z,16.26
2019-05-29T13:50:17.544Z,16.37
2019-05-29T13:52:46.021Z,16.16
2019-05-29T13:55:16.593Z,16.42
2019-05-29T13:57:45.053Z,16.58
2019-05-29T14:00:32.574Z,16.26
2019-05-29T14:02:46.688Z,16.46
2019-05-29T14:05:17.096Z,16.60
2019-05-29T14:07:45.478Z,16.75
2019-05-29T14:10:15.063Z,16.79
2019-05-29T14:12:43.623Z,16.55
2019-05-29T14:15:15.166Z,16.54
2019-05-29T14:17:43.619Z,16.57
2019-05-29T14:20:13.161Z,16.60
2019-05-29T14:22:41.662Z,16.83
2019-05-29T14:25:11.653Z,16.97
2019-05-29T14:27:40.441Z,16.86
2019-05-29T14:30:10.671Z,16.89
2019-05-29T14:32:39.707Z,16.95
2019-05-29T14:35:10.441Z,17.04
2019-05-29T14:37:38.881Z,16.87
2019-05-29T14:40:08.125Z,16.99
2019-05-29T14:42:36.798Z,17.21
2019-05-29T14:45:10.342Z,17.46
2019-05-29T14:47:39.434Z,17.70
2019-05-29T14:50:09.117Z,17.58
2019-05-29T14:52:38.307Z,17.72
2019-05-29T14:55:08.778Z,17.61
2019-05-29T14:57:37.521Z,17.79
2019-05-29T15:00:18.901Z,17.61
2019-05-29T15:02:38.142Z,17.39
2019-05-29T15:05:09.608Z,17.22
2019-05-29T15:07:38.354Z,17.11
2019-05-29T15:10:24.047Z,17.20
2019-05-29T15:12:39.169Z,17.34
2019-05-29T15:15:11.122Z,17.43
2019-05-29T15:17:39.263Z,17.43
2019-05-29T15:20:09.740Z,17.39
2019-05-29T15:22:38.836Z,17.18
2019-05-29T15:25:17.416Z,17.28
2019-05-29T15:27:38.410Z,17.16
2019-05-29T15:30:11.115Z,17.36
2019-05-29T15:32:39.730Z,17.34
2019-05-29T15:35:14.481Z,17.12
2019-05-29T15:37:40.858Z,16.95
2019-05-29T15:40:12.726Z,16.84
2019-05-29T15:42:41.402Z,16.76
2019-05-29T15:45:12.181Z,16.88
2019-05-29T15:47:40.621Z,16.90
2019-05-29T15:50:13.382Z,16.88
2019-05-29T15:52:41.863Z,16.87
2019-05-29T15:55:24.629Z,16.88
2019-05-29T15:57:42.352Z,16.53
2019-05-29T16:00:13.642Z,16.66
2019-05-29T16:02:42.325Z,16.76
2019-05-29T16:05:13.169Z,16.86
2019-05-29T16:07:41.801Z,16.83
2019-05-29T16:10:14.717Z,16.81
2019-05-29T16:12:42.584Z,16.96
2019-05-29T16:15:13.100Z,17.06
2019-05-29T16:17:41.764Z,17.12
2019-05-29T16:20:12.355Z,17.21
2019-05-29T16:22:41.047Z,17.18
2019-05-29T16:25:10.836Z,17.01
2019-05-29T16:27:39.626Z,16.94
2019-05-29T16:30:09.392Z,16.92
2019-05-29T16:32:38.351Z,16.87
2019-05-29T16:35:10.978Z,16.78
2019-05-29T16:37:39.627Z,16.75
2019-05-29T16:40:14.321Z,16.50
2019-05-29T16:42:43.451Z,16.63
2019-05-29T16:45:14.192Z,16.67
2019-05-29T16:47:42.928Z,16.64
2019-05-29T16:50:12.941Z,16.61
2019-05-29T16:52:41.523Z,16.54
2019-05-29T16:55:12.959Z,16.58
2019-05-29T16:57:42.175Z,16.58
2019-05-29T17:00:13.608Z,16.62
2019-05-29T17:02:43.213Z,16.44
2019-05-29T17:05:12.083Z,16.42
2019-05-29T17:07:40.505Z,16.38
2019-05-29T17:10:10.182Z,16.41
2019-05-29T17:12:38.694Z,16.44
2019-05-29T17:15:11.952Z,16.49
2019-05-29T17:17:40.453Z,16.42
2019-05-29T17:20:10.513Z,16.25
2019-05-29T17:22:38.963Z,16.15
2019-05-29T17:25:07.844Z,16.21
2019-05-29T17:27:36.366Z,16.18
2019-05-29T17:30:07.425Z,16.22
2019-05-29T17:32:35.859Z,16.12
2019-05-29T17:35:07.028Z,16.15
2019-05-29T17:37:35.544Z,16.13
2019-05-29T17:40:05.810Z,16.17
2019-05-29T17:42:34.221Z,16.10
2019-05-29T17:45:03.649Z,16.07
2019-05-29T17:47:32.272Z,16.09
2019-05-29T17:50:00.708Z,16.14
2019-05-29T17:52:29.211Z,16.10
2019-05-29T17:54:57.630Z,16.03
2019-05-29T17:57:26.869Z,15.94
2019-05-29T17:59:55.292Z,15.93
2019-05-29T18:02:24.529Z,15.88
2019-05-29T18:04:53.199Z,15.87
2019-05-29T18:07:22.638Z,15.78
2019-05-29T18:09:51.410Z,15.65
2019-05-29T18:12:20.953Z,15.66
2019-05-29T18:14:49.350Z,15.62
2019-05-29T18:17:17.805Z,15.61
2019-05-29T18:19:46.205Z,15.53
2019-05-29T18:22:14.637Z,15.56
2019-05-29T18:24:43.145Z,15.57
2019-05-29T18:27:11.597Z,15.56
2019-05-29T18:29:40.007Z,15.56
2019-05-29T18:32:08.525Z,15.51
2019-05-29T18:34:36.945Z,15.45
2019-05-29T18:37:05.465Z,15.40
2019-05-29T18:39:34.126Z,15.37
2019-05-29T18:42:02.561Z,15.35
2019-05-29T18:44:31.068Z,15.35
2019-05-29T18:47:05.634Z,15.33
2019-05-29T18:49:33.979Z,15.26
2019-05-29T18:52:02.400Z,15.22
2019-05-29T18:54:32.982Z,15.21
2019-05-29T18:57:14.366Z,15.11
2019-05-29T18:59:32.137Z,15.05
2019-05-29T19:02:00.560Z,15.02
2019-05-29T19:04:29.899Z,14.94
2019-05-29T19:06:58.400Z,14.94
2019-05-29T19:09:27.821Z,14.83
2019-05-29T19:11:56.540Z,14.72
2019-05-29T19:14:25.804Z,14.59
2019-05-29T19:16:54.552Z,14.43
2019-05-29T19:19:24.016Z,14.44
2019-05-29T19:21:52.905Z,14.49
2019-05-29T19:24:22.552Z,14.45
2019-05-29T19:26:51.133Z,14.39
2019-05-29T19:29:19.552Z,14.34
2019-05-29T19:31:47.980Z,14.20
2019-05-29T19:34:16.416Z,14.17
2019-05-29T19:36:45.008Z,14.12
2019-05-29T19:39:13.439Z,14.12
2019-05-29T19:41:41.870Z,14.04
2019-05-29T19:44:10.370Z,13.98
2019-05-29T19:46:53.189Z,13.96
2019-05-29T19:49:09.097Z,13.87
2019-05-29T19:51:37.542Z,13.78
2019-05-29T19:54:06.055Z,13.70
2019-05-29T19:56:34.489Z,13.63
2019-05-29T19:59:02.916Z,13.57
2019-05-29T20:01:36.927Z,13.53
2019-05-29T20:04:01.589Z,13.43
2019-05-29T20:06:30.961Z,13.43
2019-05-29T20:08:59.439Z,13.42
2019-05-29T20:11:27.930Z,13.38
2019-05-29T20:13:56.345Z,13.36
2019-05-29T20:16:24.806Z,13.29
2019-05-29T20:18:53.217Z,13.22
2019-05-29T20:21:21.650Z,13.18
2019-05-29T20:23:50.133Z,13.06
2019-05-29T20:26:18.509Z,13.09
2019-05-29T20:28:46.950Z,12.99
2019-05-29T20:31:15.372Z,12.96
2019-05-29T20:33:43.812Z,12.91
2019-05-29T20:36:12.240Z,12.84
2019-05-29T20:38:41.355Z,12.76
2019-05-29T20:41:09.873Z,12.61
2019-05-29T20:43:39.643Z,12.58
2019-05-29T20:46:08.351Z,12.57
2019-05-29T20:48:36.779Z,12.52
2019-05-29T20:51:05.271Z,12.50
2019-05-29T20:53:33.685Z,12.53
2019-05-29T20:56:02.102Z,12.48
2019-05-29T20:58:31.629Z,12.39
2019-05-29T21:01:03.223Z,12.34
2019-05-29T21:03:30.587Z,12.25
2019-05-29T21:05:59.013Z,12.24
2019-05-29T21:08:27.478Z,12.21
2019-05-29T21:10:56.259Z,12.13
2019-05-29T21:13:24.698Z,12.01
2019-05-29T21:15:53.121Z,11.99
2019-05-29T21:18:21.541Z,12.03
2019-05-29T21:20:49.993Z,11.93
2019-05-29T21:23:18.581Z,11.80
2019-05-29T21:25:47.071Z,11.74
2019-05-29T21:28:15.516Z,11.66
2019-05-29T21:30:43.958Z,11.60
2019-05-29T21:33:12.410Z,11.57
2019-05-29T21:35:42.116Z,11.44
2019-05-29T21:38:10.610Z,11.31
2019-05-29T21:40:40.305Z,11.33
2019-05-29T21:43:08.932Z,11.28
2019-05-29T21:45:38.675Z,11.29
2019-05-29T21:48:07.245Z,11.16
2019-05-29T21:50:37.055Z,11.13
2019-05-29T21:53:05.927Z,11.16
2019-05-29T21:55:34.361Z,11.15
2019-05-29T21:58:02.775Z,11.07
2019-05-29T22:00:38.065Z,11.08
2019-05-29T22:03:06.538Z,11.01
2019-05-29T22:05:35.147Z,10.93
2019-05-29T22:08:03.707Z,11.03
2019-05-29T22:10:32.276Z,10.95
2019-05-29T22:13:02.171Z,10.90
2019-05-29T22:15:30.606Z,10.82
2019-05-29T22:17:59.248Z,10.79
2019-05-29T22:20:27.818Z,10.76
2019-05-29T22:22:57.188Z,10.70
2019-05-29T22:25:25.850Z,10.69
2019-05-29T22:27:55.610Z,10.62
2019-05-29T22:30:24.475Z,10.53
2019-05-29T22:32:53.304Z,10.46
2019-05-29T22:35:22.350Z,10.38
2019-05-29T22:37:51.529Z,10.46
2019-05-29T22:40:20.167Z,10.36
2019-05-29T22:42:48.586Z,10.32
2019-05-29T22:45:17.007Z,10.27
2019-05-29T22:47:45.432Z,10.19
2019-05-29T22:50:14.030Z,10.17
2019-05-29T22:52:42.483Z,10.11
2019-05-29T22:55:11.537Z,10.06
2019-05-29T22:57:39.975Z,10.07
2019-05-29T23:00:12.125Z,10.00
2019-05-29T23:02:40.538Z,9.99
2019-05-29T23:05:10.212Z,9.97
2019-05-29T23:07:39.415Z,9.89
2019-05-29T23:10:11.909Z,9.95
2019-05-29T23:12:40.416Z,9.96
2019-05-29T23:15:09.584Z,9.87
2019-05-29T23:17:38.083Z,9.86
2019-05-29T23:20:08.444Z,9.79
2019-05-29T23:22:36.951Z,9.75
2019-05-29T23:25:07.189Z,9.72
2019-05-29T23:27:36.230Z,9.69
2019-05-29T23:30:08.931Z,9.64
2019-05-29T23:32:37.431Z,9.65
2019-05-29T23:35:07.080Z,9.62
2019-05-29T23:37:35.523Z,9.59
2019-05-29T23:40:08.578Z,9.53
2019-05-29T23:42:37.012Z,9.52
2019-05-29T23:45:09.539Z,9.51
2019-05-29T23:47:37.952Z,9.48
2019-05-29T23:50:08.003Z,9.42
2019-05-29T23:52:36.429Z,9.39
2019-05-29T23:55:06.687Z,9.38
2019-05-29T23:57:35.120Z,9.38
